Aurora, NE

8:18 PM CDT on May 25, 2017 (GMT -0500)
Aurora Municipal

Weather History for KAUH - January, 2014

Change the Weather History Date:

Thursday, January 16, 2014

  Actual Average Record
Temperature  
Mean Temperature 34 °F -  
Max Temperature 45 °F 35 °F 55 °F (2015)
Min Temperature 22 °F 13 °F -13 °F (1977)
Degree Days  
Heating Degree Days 32    
Moisture  
Dew Point 16 °F    
Average Humidity 45    
Maximum Humidity 62    
Minimum Humidity 32    
Precipitation  
Precipitation 0.00 in - - ()
Sea Level Pressure  
Sea Level Pressure 29.94 in    
Wind  
Wind Speed 25 mph (NW)    
Max Wind Speed 43 mph    
Max Gust Speed 56 mph    
Visibility 10 miles    
Events      
Averages and records for this station are not official NWS values.
T = Trace of Precipitation, MM = Missing Value Source: NWS Daily Summary

Daily Weather History Graph

Daily Weather History Graph

Search for Another Location

Airport or City:

Trip Planner

Search our weather history database for the weather conditions in past years. The results will help you decide how hot, cold, wet, or windy it might be!

Date:

Astronomy

Jan. 16, 2014 Rise Set
Actual Time 7:53 AM CST 5:30 PM CST
Civil Twilight 7:23 AM CST 6:00 PM CST
Nautical Twilight 6:49 AM CST 6:33 PM CST
Astronomical Twilight 6:17 AM CST 7:06 PM CST
Moon 6:23 PM CST (1/16) 7:47 AM CST (1/16)
Length of Visible Light 10h 36m
Length of Day
9h 36m
Full, 100% of the Moon is Illuminated
Jan 16
Full
Jan 23
Last Quarter
Jan 30
New
Feb 6
First Quarter
Feb 14
Full

Hourly Weather History & Observations

Time (CST) Temp. Windchill Dew Point Humidity Pressure Visibility Wind Dir Wind Speed Gust Speed Precip Events Conditions
12:15 AM 45.9 °F 39.4 °F 28.2 °F 50% 29.83 in 10.0 mi NNW 15.0 mph 20.7 mph N/A   Mostly Cloudy
12:35 AM 45.0 °F 39.3 °F 28.0 °F 52% 29.82 in 10.0 mi NNW 11.5 mph - N/A   Mostly Cloudy
12:55 AM 42.1 °F 35.7 °F 27.0 °F 55% 29.82 in 10.0 mi NW 11.5 mph - N/A   Scattered Clouds
1:15 AM 37.6 °F 30.0 °F 25.5 °F 62% 29.83 in 10.0 mi WNW 11.5 mph - N/A   Scattered Clouds
1:35 AM 38.8 °F 31.6 °F 26.6 °F 61% 29.82 in 10.0 mi WNW 11.5 mph 18.4 mph N/A   Scattered Clouds
1:55 AM 39.9 °F 32.1 °F 26.6 °F 59% 29.79 in 10.0 mi West 13.8 mph - N/A   Scattered Clouds
2:15 AM 40.5 °F 32.1 °F 26.1 °F 57% 29.81 in 10.0 mi WNW 16.1 mph 19.6 mph N/A   Scattered Clouds
2:35 AM 44.2 °F 35.4 °F 24.8 °F 46% 29.81 in 10.0 mi WNW 23.0 mph 31.1 mph N/A   Mostly Cloudy
2:55 AM 45.3 °F 36.5 °F 24.1 °F 43% 29.82 in 10.0 mi WNW 25.3 mph 35.7 mph N/A   Mostly Cloudy
3:15 AM 44.6 °F 35.1 °F 22.8 °F 42% 29.82 in 10.0 mi NW 27.6 mph 36.8 mph N/A   Scattered Clouds
3:35 AM 43.3 °F 34.5 °F 22.3 °F 43% 29.83 in 10.0 mi NW 21.9 mph 28.8 mph N/A   Clear
3:55 AM 43.0 °F 32.7 °F 22.1 °F 44% 29.84 in 10.0 mi NW 28.8 mph 38.0 mph N/A   Clear
4:15 AM 42.8 °F 33.1 °F 22.5 °F 45% 29.83 in 10.0 mi NW 25.3 mph 41.4 mph N/A   Scattered Clouds
4:35 AM 41.9 °F 31.9 °F 22.8 °F 47% 29.85 in 10.0 mi NW 25.3 mph 34.5 mph N/A   Scattered Clouds
4:55 AM 41.5 °F 31.4 °F 22.6 °F 47% 29.85 in 10.0 mi NNW 25.3 mph 42.6 mph N/A   Scattered Clouds
5:15 AM 41.2 °F 29.7 °F 21.2 °F 45% 29.86 in 10.0 mi NW 32.2 mph 46.0 mph N/A   Scattered Clouds
5:35 AM 41.0 °F 29.7 °F 21.6 °F 46% 29.86 in 10.0 mi NW 31.1 mph 36.8 mph N/A   Mostly Cloudy
5:55 AM 41.0 °F 28.8 °F 21.0 °F 45% 29.87 in 10.0 mi NW 36.8 mph 43.7 mph N/A   Overcast
6:15 AM 41.0 °F 29.1 °F 19.8 °F 43% 29.87 in 10.0 mi NW 34.5 mph 43.7 mph N/A   Overcast
6:35 AM 40.5 °F 28.2 °F 19.6 °F 43% 29.87 in 10.0 mi NW 35.7 mph 42.6 mph N/A   Overcast
6:55 AM 40.5 °F 28.2 °F 19.2 °F 43% 29.88 in 10.0 mi NW 35.7 mph 49.5 mph N/A   Overcast
7:15 AM 39.9 °F 29.2 °F 18.7 °F 42% 29.88 in 10.0 mi NW 25.3 mph 41.4 mph N/A   Mostly Cloudy
7:35 AM 38.5 °F 27.8 °F 18.3 °F 44% 29.88 in 10.0 mi NW 23.0 mph 29.9 mph N/A   Scattered Clouds
7:55 AM 38.1 °F 27.3 °F 19.0 °F 46% 29.89 in 10.0 mi NW 23.0 mph 34.5 mph N/A   Clear
8:15 AM 37.8 °F 26.3 °F 19.2 °F 47% 29.90 in 10.0 mi NW 25.3 mph 31.1 mph N/A   Clear
8:35 AM 37.6 °F 25.9 °F 19.2 °F 48% 29.90 in 10.0 mi NW 26.5 mph 31.1 mph N/A   Clear
8:55 AM 38.7 °F 27.3 °F 19.2 °F 46% 29.90 in 10.0 mi NW 26.5 mph 32.2 mph N/A   Clear
9:15 AM 39.9 °F 27.8 °F 19.0 °F 43% 29.90 in 10.0 mi NW 33.4 mph 42.6 mph N/A   Clear
9:35 AM 40.8 °F 29.2 °F 19.0 °F 42% 29.90 in 10.0 mi NW 32.2 mph 44.9 mph N/A   Clear
9:55 AM 41.5 °F 29.9 °F 18.5 °F 40% 29.91 in 10.0 mi NW 34.5 mph 43.7 mph N/A   Clear
10:15 AM 42.1 °F 30.3 °F 18.3 °F 39% 29.91 in 10.0 mi NW 36.8 mph 46.0 mph N/A   Clear
10:35 AM 42.8 °F 31.8 °F 18.0 °F 37% 29.91 in 10.0 mi NW 33.4 mph 44.9 mph N/A   Scattered Clouds
10:55 AM 43.0 °F 31.5 °F 16.7 °F 35% 29.91 in 10.0 mi NNW 36.8 mph 48.3 mph N/A   Scattered Clouds
11:15 AM 42.8 °F 31.8 °F 16.3 °F 34% 29.90 in 10.0 mi NW 33.4 mph 51.8 mph N/A   Mostly Cloudy
11:35 AM 44.1 °F 33.0 °F 16.2 °F 33% 29.90 in 10.0 mi NW 36.8 mph 48.3 mph N/A   Mostly Cloudy
11:55 AM 42.4 °F 30.8 °F 14.9 °F 33% 29.89 in 10.0 mi NNW 36.8 mph 44.9 mph N/A   Overcast
12:15 PM 43.0 °F 31.2 °F 15.1 °F 32% 29.89 in 10.0 mi NNW 39.1 mph 48.3 mph N/A   Overcast
12:35 PM 41.9 °F 30.7 °F 16.0 °F 35% 29.89 in 10.0 mi NNW 32.2 mph 48.3 mph N/A   Overcast
12:55 PM 41.2 °F 28.9 °F 15.6 °F 36% 29.90 in 7.0 mi NW 38.0 mph 54.1 mph N/A   Overcast
1:15 PM 39.9 °F 27.0 °F 16.9 °F 39% 29.90 in 7.0 mi NW 39.1 mph 52.9 mph N/A   Overcast
1:35 PM 40.1 °F 27.2 °F 15.1 °F 36% 29.90 in 7.0 mi NW 39.1 mph 55.2 mph N/A   Mostly Cloudy
1:55 PM 41.0 °F 28.0 °F 14.9 °F 35% 29.89 in 7.0 mi NW 42.6 mph 56.4 mph N/A   Mostly Cloudy
2:35 PM 40.8 °F 27.8 °F 13.6 °F 33% 29.91 in 10.0 mi NW 42.6 mph 51.8 mph N/A   Overcast
2:55 PM 40.1 °F 26.8 °F 13.1 °F 33% 29.92 in 7.0 mi NW 42.6 mph 55.2 mph N/A   Mostly Cloudy
3:15 PM 39.4 °F 27.1 °F 16.7 °F 40% 29.93 in 10.0 mi NNW 33.4 mph 52.9 mph N/A   Mostly Cloudy
3:35 PM 38.3 °F 25.2 °F 16.7 °F 42% 29.94 in 7.0 mi NNW 35.7 mph 48.3 mph N/A   Mostly Cloudy
3:55 PM 37.6 °F 24.4 °F 15.3 °F 40% 29.95 in 10.0 mi NNW 34.5 mph 49.5 mph N/A   Overcast
4:15 PM 36.3 °F 22.7 °F 19.0 °F 50% 29.97 in 10.0 mi NNW 34.5 mph 50.6 mph N/A   Overcast
4:35 PM 36.9 °F 23.1 °F 14.5 °F 40% 29.97 in 10.0 mi NNW 36.8 mph 46.0 mph N/A   Overcast
4:55 PM 36.1 °F 22.6 °F 10.6 °F 35% 29.99 in 10.0 mi NNW 33.4 mph 51.8 mph N/A   Overcast
5:15 PM 33.3 °F 19.1 °F 12.4 °F 42% 30.01 in 10.0 mi North 31.1 mph 42.6 mph N/A   Mostly Cloudy
5:35 PM 30.9 °F 16.7 °F 13.3 °F 48% 30.02 in 10.0 mi North 27.6 mph 40.3 mph N/A   Clear
5:55 PM 29.8 °F 14.0 °F 11.3 °F 46% 30.04 in 10.0 mi North 33.4 mph 39.1 mph N/A   Clear
6:15 PM 28.4 °F 13.0 °F 9.5 °F 45% 30.05 in 10.0 mi NNW 28.8 mph 40.3 mph N/A   Clear
6:35 PM 27.5 °F 12.3 °F 8.6 °F 45% 30.06 in 10.0 mi NNW 26.5 mph 38.0 mph N/A   Clear
6:55 PM 26.4 °F 11.8 °F 8.2 °F 46% 30.07 in 10.0 mi NNW 23.0 mph 33.4 mph N/A   Clear
7:15 PM 25.9 °F 11.7 °F 8.6 °F 48% 30.08 in 10.0 mi NNW 20.7 mph 28.8 mph N/A   Clear
7:35 PM 25.5 °F 10.6 °F 8.6 °F 49% 30.08 in 10.0 mi NNW 23.0 mph 27.6 mph N/A   Clear
7:55 PM 24.8 °F 11.1 °F 8.6 °F 50% 30.08 in 10.0 mi NNW 18.4 mph 24.2 mph N/A   Clear
8:15 PM 26.2 °F 10.1 °F 8.8 °F 48% 30.09 in 10.0 mi NNW 28.8 mph 36.8 mph N/A   Clear
8:35 PM 25.7 °F 8.6 °F 8.2 °F 48% 30.10 in 10.0 mi NNW 32.2 mph 40.3 mph N/A   Clear
8:55 PM 25.7 °F 8.3 °F 8.2 °F 48% 30.11 in 10.0 mi NNW 33.4 mph 42.6 mph N/A   Clear
9:15 PM 25.3 °F 8.9 °F 7.7 °F 47% 30.12 in 10.0 mi NNW 28.8 mph 40.3 mph N/A   Clear
9:35 PM 24.6 °F 9.4 °F 7.5 °F 48% 30.12 in 10.0 mi NNW 23.0 mph 32.2 mph N/A   Clear
9:55 PM 24.3 °F 6.9 °F 6.8 °F 47% 30.12 in 10.0 mi NNW 31.1 mph 38.0 mph N/A   Clear
10:15 PM 23.9 °F 7.5 °F 7.0 °F 49% 30.13 in 10.0 mi NNW 26.5 mph 36.8 mph N/A   Clear
10:35 PM 23.0 °F 8.3 °F 7.7 °F 52% 30.13 in 10.0 mi NNW 19.6 mph 26.5 mph N/A   Clear
10:55 PM 22.8 °F 7.7 °F 7.3 °F 52% 30.12 in 10.0 mi NNW 20.7 mph 28.8 mph N/A   Clear
11:15 PM 22.8 °F 6.3 °F 7.2 °F 51% 30.13 in 10.0 mi NNW 25.3 mph 32.2 mph N/A   Clear
11:35 PM 22.6 °F 7.1 °F 6.4 °F 50% 30.13 in 10.0 mi NNW 21.9 mph 32.2 mph N/A   Clear
11:55 PM 22.1 °F 7.2 °F 6.4 °F 51% 30.12 in 10.0 mi NW 19.6 mph 31.1 mph N/A   Clear